Time;durP1;ratioP1;P1;durP2;ratioP2;P2;SDS_P1;SDS_P2;PMS_P1;PMS_P2;Temp;Humidity;BMP_temperature;BMP_pressure;BME280_temperature;BME280_humidity;BME280_pressure;Samples;Min_cycle;Max_cycle;Signal;HPM_P1;HPM_P2
2023/05/15 00:00:01;;;;;;;34.15;25.70;;;17.30;99.90;;;;;;5054716;28;20040;-76
2023/05/15 00:02:26;;;;;;;35.47;23.85;;;17.20;99.90;;;;;;5038032;28;20052;-75
2023/05/15 00:04:52;;;;;;;37.55;27.00;;;17.20;99.90;;;;;;5052454;28;20392;-75
2023/05/15 00:07:18;;;;;;;35.42;25.08;;;17.20;99.90;;;;;;5057164;28;20116;-76
2023/05/15 00:09:44;;;;;;;35.95;25.65;;;17.10;99.90;;;;;;5056937;28;20141;-76
2023/05/15 00:12:09;;;;;;;34.90;26.92;;;17.00;99.90;;;;;;5053710;28;20025;-76
2023/05/15 00:14:35;;;;;;;34.08;25.38;;;17.00;99.90;;;;;;5051286;28;20044;-75
2023/05/15 00:17:01;;;;;;;33.80;25.33;;;17.00;99.90;;;;;;5052505;28;20021;-76
2023/05/15 00:19:27;;;;;;;36.92;26.23;;;17.00;99.90;;;;;;5052657;28;20063;-75
2023/05/15 00:21:54;;;;;;;36.90;27.63;;;17.00;99.90;;;;;;5038185;28;20089;-75
2023/05/15 00:24:20;;;;;;;33.70;26.42;;;16.90;99.90;;;;;;5051236;28;20024;-75
2023/05/15 00:26:46;;;;;;;36.75;25.45;;;16.90;99.90;;;;;;5051960;28;20527;-75
2023/05/15 00:29:12;;;;;;;35.42;26.40;;;16.90;99.90;;;;;;5036339;28;20127;-75
2023/05/15 00:31:38;;;;;;;33.30;26.88;;;16.80;99.90;;;;;;5051195;28;20028;-77
2023/05/15 00:34:03;;;;;;;37.83;26.67;;;16.90;99.90;;;;;;5050805;28;20036;-77
2023/05/15 00:36:29;;;;;;;38.28;27.73;;;16.80;99.90;;;;;;5054480;28;20358;-79
2023/05/15 00:38:55;;;;;;;40.25;25.83;;;16.80;99.90;;;;;;5049981;28;20085;-75
2023/05/15 00:41:22;;;;;;;42.95;30.23;;;16.80;99.90;;;;;;5052332;28;20480;-75
2023/05/15 00:43:50;;;;;;;40.35;28.50;;;16.70;99.90;;;;;;5050581;28;20025;-75
2023/05/15 00:46:18;;;;;;;39.72;28.08;;;16.70;99.90;;;;;;5051013;28;20035;-76
2023/05/15 00:48:44;;;;;;;37.35;28.60;;;16.70;99.90;;;;;;5051832;28;20017;-75
2023/05/15 00:51:11;;;;;;;38.03;29.02;;;16.60;99.90;;;;;;5037535;28;20437;-76
2023/05/15 00:53:37;;;;;;;36.53;28.85;;;16.60;99.90;;;;;;5056961;28;20074;-76
2023/05/15 00:56:05;;;;;;;38.30;29.20;;;16.60;99.90;;;;;;5053287;28;20032;-75
2023/05/15 00:58:31;;;;;;;38.50;29.83;;;16.60;99.90;;;;;;5052030;28;20043;-77
2023/05/15 01:00:57;;;;;;;40.00;29.65;;;16.40;99.90;;;;;;5051239;28;20568;-77
2023/05/15 01:03:23;;;;;;;34.83;27.02;;;16.40;99.90;;;;;;5032499;28;20025;-75
2023/05/15 01:05:48;;;;;;;43.78;29.27;;;16.40;99.90;;;;;;5052088;28;20025;-76
2023/05/15 01:08:32;;;;;;;41.17;29.33;;;16.40;99.90;;;;;;5049303;28;20032;-75
2023/05/15 01:10:59;;;;;;;44.60;32.38;;;16.40;99.90;;;;;;5051714;28;22263;-79
2023/05/15 01:13:24;;;;;;;39.10;29.52;;;16.40;99.90;;;;;;5052334;28;20075;-76
2023/05/15 01:15:50;;;;;;;37.38;28.60;;;16.40;99.90;;;;;;5054495;28;20644;-77
2023/05/15 01:18:16;;;;;;;41.17;28.25;;;16.40;99.90;;;;;;5052380;28;20016;-76
2023/05/15 01:21:00;;;;;;;41.20;30.75;;;16.30;99.90;;;;;;5054493;28;20035;-76
2023/05/15 01:23:52;;;;;;;44.42;29.90;;;16.30;99.90;;;;;;5056717;28;20031;-76
2023/05/15 01:26:21;;;;;;;41.45;29.33;;;16.30;99.90;;;;;;5052370;28;20036;-76
2023/05/15 01:29:04;;;;;;;42.33;31.30;;;16.30;99.90;;;;;;5034666;28;20029;-76
2023/05/15 01:31:32;;;;;;;38.10;28.20;;;16.20;99.90;;;;;;5052890;28;20024;-76
2023/05/15 01:34:02;;;;;;;39.72;28.92;;;16.20;99.90;;;;;;5048723;28;20025;-76
2023/05/15 01:36:42;;;;;;;39.85;28.20;;;16.20;99.90;;;;;;5052192;28;20032;-78
2023/05/15 01:39:09;;;;;;;50.15;32.88;;;16.10;99.90;;;;;;5053660;28;20012;-76
2023/05/15 01:41:44;;;;;;;45.50;31.55;;;16.20;99.90;;;;;;5036666;28;20040;-77
2023/05/15 01:44:45;;;;;;;43.58;33.58;;;16.10;99.90;;;;;;5050425;28;20021;-77
2023/05/15 01:47:29;;;;;;;46.17;32.42;;;16.10;99.90;;;;;;5020223;28;20095;-78
2023/05/15 01:49:56;;;;;;;47.92;33.00;;;16.10;99.90;;;;;;5020468;28;20021;-79
2023/05/15 01:52:38;;;;;;;43.33;33.47;;;16.00;99.90;;;;;;5053763;28;20035;-77
2023/05/15 01:55:07;;;;;;;47.75;34.83;;;16.00;99.90;;;;;;5053083;28;20033;-75
2023/05/15 01:57:34;;;;;;;54.03;33.55;;;16.00;99.90;;;;;;5051591;28;20082;-76
2023/05/15 02:00:01;;;;;;;41.70;31.25;;;15.90;99.90;;;;;;5049872;28;20040;-78
2023/05/15 02:02:28;;;;;;;49.38;34.70;;;15.90;99.90;;;;;;5050262;28;20104;-78
2023/05/15 02:04:55;;;;;;;48.80;35.55;;;15.90;99.90;;;;;;5050423;28;20017;-76
2023/05/15 02:07:22;;;;;;;46.03;32.85;;;15.80;99.90;;;;;;5049398;28;20027;-79
2023/05/15 02:09:50;;;;;;;44.25;33.13;;;15.80;99.90;;;;;;5050865;28;20036;-75
2023/05/15 02:12:16;;;;;;;51.75;36.78;;;15.80;99.90;;;;;;5050824;28;20493;-76
2023/05/15 02:14:42;;;;;;;44.05;33.10;;;15.70;99.90;;;;;;5049459;28;20083;-75
2023/05/15 02:17:08;;;;;;;46.65;34.92;;;15.70;99.90;;;;;;5051908;28;20021;-76
2023/05/15 02:19:34;;;;;;;50.53;35.10;;;15.60;99.90;;;;;;5050666;28;20404;-77
2023/05/15 02:22:00;;;;;;;45.58;33.80;;;15.60;99.90;;;;;;5060187;28;20041;-75
2023/05/15 02:24:25;;;;;;;50.50;37.25;;;15.60;99.90;;;;;;5050300;28;20504;-75
2023/05/15 02:27:09;;;;;;;50.70;35.25;;;15.60;99.90;;;;;;5052088;28;20108;-75
2023/05/15 02:29:59;;;;;;;51.53;37.10;;;15.50;99.90;;;;;;5058066;28;20029;-78
2023/05/15 02:32:27;;;;;;;51.03;36.03;;;15.50;99.90;;;;;;5056056;28;20107;-75
2023/05/15 02:35:23;;;;;;;52.17;37.65;;;15.50;99.90;;;;;;5039853;28;20071;-75
2023/05/15 02:37:53;;;;;;;53.13;35.20;;;15.50;99.90;;;;;;5055361;28;20114;-75
2023/05/15 02:40:22;;;;;;;55.20;38.90;;;15.50;99.90;;;;;;5054026;28;20028;-76
2023/05/15 02:42:51;;;;;;;56.08;37.75;;;15.40;99.90;;;;;;5057321;28;20025;-76
2023/05/15 02:45:18;;;;;;;58.50;41.42;;;15.40;99.90;;;;;;5054879;28;20041;-75
2023/05/15 02:47:44;;;;;;;53.35;38.83;;;15.40;99.90;;;;;;5051586;28;20056;-75
2023/05/15 02:50:10;;;;;;;54.05;38.63;;;15.40;99.90;;;;;;5054726;28;20025;-75
2023/05/15 02:52:36;;;;;;;58.17;38.78;;;15.40;99.90;;;;;;5057543;28;20496;-75
2023/05/15 02:55:03;;;;;;;52.17;38.95;;;15.40;99.90;;;;;;5056741;28;20028;-76
2023/05/15 02:57:29;;;;;;;57.67;40.17;;;15.30;99.90;;;;;;5054643;28;20108;-75
2023/05/15 02:59:58;;;;;;;53.03;40.17;;;15.30;99.90;;;;;;5052265;28;20021;-76
2023/05/15 03:02:24;;;;;;;59.50;42.13;;;15.20;99.90;;;;;;5056562;28;20025;-75
2023/05/15 03:04:50;;;;;;;62.70;42.13;;;15.20;99.90;;;;;;5053267;28;20036;-76
2023/05/15 03:07:15;;;;;;;60.05;41.88;;;15.20;99.90;;;;;;5052639;28;20020;-75
2023/05/15 03:09:41;;;;;;;56.90;41.45;;;15.10;99.90;;;;;;5052588;28;20020;-75
2023/05/15 03:12:07;;;;;;;63.53;44.90;;;15.10;99.90;;;;;;5052722;28;20021;-75
2023/05/15 03:14:33;;;;;;;65.13;44.53;;;15.10;99.90;;;;;;5054853;28;20021;-75
2023/05/15 03:16:59;;;;;;;62.75;44.80;;;15.00;99.90;;;;;;5053513;28;20032;-75
2023/05/15 03:19:25;;;;;;;64.20;44.17;;;15.00;99.90;;;;;;5055718;28;20017;-75
2023/05/15 03:21:51;;;;;;;67.28;44.20;;;15.00;99.90;;;;;;5054438;28;20106;-75
2023/05/15 03:24:17;;;;;;;66.18;44.22;;;14.90;99.90;;;;;;5049706;28;20033;-75
2023/05/15 03:26:43;;;;;;;67.43;46.10;;;15.00;99.90;;;;;;5051672;28;20047;-75
2023/05/15 03:29:09;;;;;;;68.03;47.80;;;14.90;99.90;;;;;;5055169;28;20025;-75
2023/05/15 03:31:35;;;;;;;73.55;51.13;;;14.90;99.90;;;;;;5053927;28;20108;-75
2023/05/15 03:34:01;;;;;;;67.60;48.85;;;14.90;99.90;;;;;;5053825;28;20082;-75
2023/05/15 03:36:26;;;;;;;64.63;48.10;;;14.90;99.90;;;;;;5055516;28;20110;-74
2023/05/15 03:38:52;;;;;;;71.03;48.22;;;14.90;99.90;;;;;;5053577;28;20024;-75
2023/05/15 03:41:20;;;;;;;71.00;49.08;;;14.80;99.90;;;;;;5054049;28;20045;-75
2023/05/15 03:43:45;;;;;;;77.30;51.85;;;14.80;99.90;;;;;;5052948;28;20103;-75
2023/05/15 03:46:11;;;;;;;69.95;49.20;;;14.70;99.90;;;;;;5057824;28;20170;-75
2023/05/15 03:48:36;;;;;;;76.00;49.33;;;14.70;99.90;;;;;;5052547;28;20379;-75
2023/05/15 03:51:03;;;;;;;77.10;49.95;;;14.70;99.90;;;;;;5051741;28;20031;-75
2023/05/15 03:53:29;;;;;;;77.53;52.13;;;14.70;99.90;;;;;;5051903;28;20422;-75
2023/05/15 03:55:55;;;;;;;74.13;50.60;;;14.70;99.90;;;;;;5051146;28;20028;-74
2023/05/15 03:58:21;;;;;;;80.60;51.83;;;14.70;99.90;;;;;;5053438;28;20033;-75
2023/05/15 04:00:46;;;;;;;79.18;54.95;;;14.70;99.90;;;;;;5054556;28;20184;-74
2023/05/15 04:03:12;;;;;;;78.03;52.95;;;14.70;99.90;;;;;;5053761;28;20025;-76
2023/05/15 04:05:38;;;;;;;78.43;51.63;;;14.70;99.90;;;;;;5055248;28;20053;-74
2023/05/15 04:08:04;;;;;;;73.70;50.60;;;14.60;99.90;;;;;;5035239;28;20037;-74
2023/05/15 04:10:31;;;;;;;75.80;50.83;;;14.60;99.90;;;;;;5035444;28;20385;-73
2023/05/15 04:12:57;;;;;;;78.78;50.97;;;14.60;99.90;;;;;;5054624;28;20104;-74
2023/05/15 04:15:24;;;;;;;83.13;53.90;;;14.60;99.90;;;;;;5036704;28;20128;-74
2023/05/15 04:17:52;;;;;;;86.60;54.45;;;14.60;99.90;;;;;;5057125;28;20017;-77
2023/05/15 04:20:22;;;;;;;78.03;51.40;;;14.60;99.90;;;;;;5050727;28;20461;-76
2023/05/15 04:22:49;;;;;;;86.35;56.58;;;14.60;99.90;;;;;;5037716;28;20388;-75
2023/05/15 04:25:15;;;;;;;83.72;55.25;;;14.60;99.90;;;;;;5038107;28;20167;-76
2023/05/15 04:27:41;;;;;;;86.60;55.63;;;14.60;99.90;;;;;;5054415;28;20100;-76
2023/05/15 04:30:08;;;;;;;86.53;53.90;;;14.50;99.90;;;;;;5052428;28;20051;-76
2023/05/15 04:32:37;;;;;;;92.35;56.95;;;14.50;99.90;;;;;;5054055;28;20061;-76
2023/05/15 04:35:04;;;;;;;84.15;56.03;;;14.50;99.90;;;;;;5054036;28;20035;-76
2023/05/15 04:37:30;;;;;;;84.82;55.30;;;14.50;99.90;;;;;;5038347;28;20023;-75
2023/05/15 04:39:56;;;;;;;92.32;57.10;;;14.40;99.90;;;;;;5050369;28;20142;-75
2023/05/15 04:42:22;;;;;;;88.78;56.40;;;14.40;99.90;;;;;;5033408;28;20610;-76
2023/05/15 04:44:47;;;;;;;88.97;58.35;;;14.40;99.90;;;;;;5052347;28;20041;-76
2023/05/15 04:47:13;;;;;;;88.80;58.05;;;14.30;99.90;;;;;;5037642;28;20021;-76
2023/05/15 04:49:41;;;;;;;87.88;57.63;;;14.40;99.90;;;;;;5050576;28;20029;-76
2023/05/15 04:52:06;;;;;;;94.45;58.80;;;14.30;99.90;;;;;;5051875;28;20013;-76
2023/05/15 04:54:33;;;;;;;90.70;59.70;;;14.30;99.90;;;;;;5049654;28;20051;-75
2023/05/15 04:56:58;;;;;;;99.80;60.33;;;14.30;99.90;;;;;;5051814;28;20036;-75
2023/05/15 04:59:24;;;;;;;97.38;60.08;;;14.30;99.90;;;;;;5053370;28;20431;-73
2023/05/15 05:01:50;;;;;;;103.30;68.40;;;14.30;99.90;;;;;;5054135;28;20123;-74
2023/05/15 05:04:19;;;;;;;105.38;64.15;;;14.20;99.90;;;;;;5051852;28;20029;-76
2023/05/15 05:06:46;;;;;;;102.10;62.28;;;14.20;99.90;;;;;;5049469;28;20020;-75
2023/05/15 05:09:11;;;;;;;106.00;60.30;;;14.20;99.90;;;;;;5049849;28;20025;-74
2023/05/15 05:11:43;;;;;;;95.45;57.72;;;14.00;99.90;;;;;;5052291;28;20066;-75
2023/05/15 05:14:10;;;;;;;116.13;66.25;;;13.90;99.90;;;;;;5052617;28;20107;-74
2023/05/15 05:16:36;;;;;;;111.45;65.82;;;14.00;99.90;;;;;;5049829;28;20675;-74
2023/05/15 05:19:02;;;;;;;109.10;64.63;;;14.10;99.90;;;;;;5051403;28;20118;-75
2023/05/15 05:21:28;;;;;;;107.80;60.80;;;14.00;99.90;;;;;;5037604;28;20431;-76
2023/05/15 05:23:53;;;;;;;114.10;62.33;;;14.10;99.90;;;;;;5051468;28;20070;-77
2023/05/15 05:26:19;;;;;;;109.85;59.80;;;14.00;99.90;;;;;;5051025;28;20068;-76
2023/05/15 05:28:45;;;;;;;110.07;60.25;;;14.00;99.90;;;;;;5052849;28;20126;-75
2023/05/15 05:31:11;;;;;;;111.05;63.38;;;13.90;99.90;;;;;;5035147;28;20458;-75
2023/05/15 05:33:36;;;;;;;108.97;61.95;;;13.80;99.90;;;;;;5053072;28;20024;-76
2023/05/15 05:36:02;;;;;;;105.05;59.60;;;14.00;99.90;;;;;;5033102;28;20477;-75
2023/05/15 05:38:28;;;;;;;110.93;63.13;;;14.00;99.90;;;;;;5050878;28;20064;-76
2023/05/15 05:40:54;;;;;;;108.07;59.88;;;14.10;99.90;;;;;;5055868;28;20033;-76
2023/05/15 05:43:19;;;;;;;112.10;62.33;;;14.20;99.90;;;;;;5053535;28;20488;-76
2023/05/15 05:45:46;;;;;;;112.15;62.38;;;14.30;99.90;;;;;;5047940;28;20043;-76
2023/05/15 05:48:13;;;;;;;112.93;59.70;;;14.30;99.90;;;;;;5054646;28;20033;-74
2023/05/15 05:50:40;;;;;;;111.97;62.63;;;14.20;99.90;;;;;;5056752;28;20026;-75
2023/05/15 05:53:05;;;;;;;110.00;59.95;;;14.30;99.90;;;;;;5037239;28;20040;-76
2023/05/15 05:55:31;;;;;;;112.75;62.00;;;14.30;99.90;;;;;;5055065;28;20021;-76
2023/05/15 05:57:57;;;;;;;108.75;62.67;;;14.30;99.90;;;;;;5038684;28;20029;-76
2023/05/15 06:00:24;;;;;;;110.47;61.80;;;14.40;99.90;;;;;;5036391;28;20440;-77
2023/05/15 06:02:57;;;;;;;104.38;57.33;;;14.30;99.90;;;;;;5056628;28;20078;-76
2023/05/15 06:05:26;;;;;;;105.40;58.10;;;14.30;99.90;;;;;;5059766;28;20038;-76
2023/05/15 06:07:53;;;;;;;105.97;56.70;;;14.40;99.90;;;;;;5057617;28;20396;-76
2023/05/15 06:10:19;;;;;;;98.13;53.10;;;14.50;99.90;;;;;;5052788;28;20021;-76
2023/05/15 06:12:45;;;;;;;102.20;55.95;;;14.40;99.90;;;;;;5053128;28;20354;-76
2023/05/15 06:15:11;;;;;;;94.78;56.35;;;14.40;99.90;;;;;;5054626;28;20056;-75
2023/05/15 06:17:37;;;;;;;99.82;56.28;;;14.20;99.90;;;;;;5053392;28;21027;-78
2023/05/15 06:20:07;;;;;;;98.22;55.47;;;14.20;99.90;;;;;;5039335;28;20025;-76
2023/05/15 06:22:34;;;;;;;100.75;56.70;;;14.30;99.90;;;;;;5059804;28;20049;-77
2023/05/15 06:25:01;;;;;;;103.10;59.63;;;14.30;99.90;;;;;;5056851;28;20388;-76
2023/05/15 06:27:28;;;;;;;102.10;55.65;;;14.40;99.90;;;;;;5056815;28;20036;-77
2023/05/15 06:29:54;;;;;;;101.75;56.97;;;14.40;99.90;;;;;;5053827;28;20036;-77
2023/05/15 06:32:20;;;;;;;106.68;59.25;;;14.50;99.90;;;;;;5053131;28;20484;-76
2023/05/15 06:34:45;;;;;;;108.00;60.60;;;14.50;99.90;;;;;;5053527;28;20021;-77
2023/05/15 06:37:11;;;;;;;107.07;59.45;;;14.60;99.90;;;;;;5053024;28;20454;-77
2023/05/15 06:39:37;;;;;;;102.18;59.35;;;14.60;99.90;;;;;;5056793;28;20048;-78
2023/05/15 06:42:03;;;;;;;110.68;62.70;;;14.60;99.90;;;;;;5054054;28;20029;-78
2023/05/15 06:44:32;;;;;;;111.28;63.67;;;14.70;99.90;;;;;;5054758;28;20021;-78
2023/05/15 06:46:57;;;;;;;115.63;63.45;;;14.70;99.90;;;;;;5056742;28;20021;-78
2023/05/15 06:49:24;;;;;;;112.40;63.28;;;14.80;99.90;;;;;;5057622;28;20056;-75
2023/05/15 06:51:50;;;;;;;112.35;64.05;;;14.70;99.90;;;;;;5056465;28;20021;-77
2023/05/15 06:54:16;;;;;;;128.07;67.75;;;14.70;99.90;;;;;;5037096;28;20025;-77
2023/05/15 06:56:42;;;;;;;123.00;68.95;;;14.90;99.90;;;;;;5054215;28;20218;-77
2023/05/15 06:59:08;;;;;;;104.70;58.95;;;14.90;99.90;;;;;;5054506;28;20505;-77
2023/05/15 07:01:34;;;;;;;102.95;59.50;;;14.90;99.90;;;;;;5037162;28;20040;-76
2023/05/15 07:04:00;;;;;;;107.40;60.75;;;15.00;99.90;;;;;;5052119;28;20025;-77
2023/05/15 07:06:25;;;;;;;96.57;57.35;;;15.10;99.90;;;;;;5036470;28;20083;-78
2023/05/15 07:08:51;;;;;;;96.18;59.67;;;15.00;99.90;;;;;;5054049;28;20021;-75
2023/05/15 07:11:17;;;;;;;97.53;59.10;;;15.10;99.90;;;;;;5055068;28;20453;-77
2023/05/15 07:13:43;;;;;;;91.13;58.60;;;15.10;99.90;;;;;;5053084;28;20489;-77
2023/05/15 07:16:09;;;;;;;94.25;58.28;;;15.00;99.90;;;;;;5053251;28;20805;-78
2023/05/15 07:18:34;;;;;;;96.20;58.45;;;15.10;99.90;;;;;;5038817;28;20087;-77
2023/05/15 07:21:01;;;;;;;90.88;59.30;;;15.30;99.90;;;;;;5055330;28;20068;-77
2023/05/15 07:23:26;;;;;;;89.70;56.33;;;15.30;99.90;;;;;;5053119;28;20635;-78
2023/05/15 07:25:54;;;;;;;89.57;55.55;;;15.40;99.90;;;;;;5052436;28;20118;-77
2023/05/15 07:28:20;;;;;;;92.45;59.05;;;15.50;99.90;;;;;;5051581;28;20864;-77
2023/05/15 07:30:46;;;;;;;97.32;61.63;;;15.60;99.90;;;;;;5054595;28;20021;-76
2023/05/15 07:33:12;;;;;;;90.70;56.13;;;15.80;99.90;;;;;;5052147;28;20027;-75
2023/05/15 07:35:37;;;;;;;90.78;56.65;;;15.80;99.90;;;;;;5052470;28;20024;-74
2023/05/15 07:38:03;;;;;;;88.45;59.35;;;15.80;99.90;;;;;;5055168;28;20028;-74
2023/05/15 07:40:32;;;;;;;89.68;59.10;;;15.90;99.90;;;;;;5054048;28;20515;-75
2023/05/15 07:42:58;;;;;;;88.30;54.38;;;16.00;99.90;;;;;;5052672;28;20365;-75
2023/05/15 07:45:24;;;;;;;87.15;54.63;;;15.90;99.90;;;;;;5054384;28;20036;-74
2023/05/15 07:47:50;;;;;;;82.03;52.33;;;15.90;99.90;;;;;;5054224;28;20541;-75
2023/05/15 07:50:16;;;;;;;77.20;48.80;;;16.00;99.90;;;;;;5055012;28;20032;-77
2023/05/15 07:52:42;;;;;;;70.57;46.58;;;16.00;99.90;;;;;;5053716;28;20021;-78
2023/05/15 07:55:09;;;;;;;65.63;42.97;;;16.10;99.90;;;;;;5053379;28;20077;-77
2023/05/15 07:57:35;;;;;;;67.70;45.92;;;16.20;99.90;;;;;;5053874;28;20025;-78
2023/05/15 08:00:05;;;;;;;68.88;44.38;;;16.20;99.90;;;;;;5051453;28;20028;-77
2023/05/15 08:02:31;;;;;;;62.55;43.85;;;16.40;99.90;;;;;;5052032;28;20044;-76
2023/05/15 08:04:57;;;;;;;58.80;40.00;;;16.50;99.90;;;;;;5049982;28;20060;-77
2023/05/15 08:07:23;;;;;;;51.85;35.85;;;16.60;99.90;;;;;;5050779;28;20389;-76
2023/05/15 08:09:49;;;;;;;49.60;34.88;;;16.60;99.90;;;;;;5055265;28;20020;-74
2023/05/15 08:12:21;;;;;;;52.60;35.35;;;16.70;99.90;;;;;;5054416;28;20023;-77
2023/05/15 08:14:51;;;;;;;50.95;35.67;;;16.70;99.90;;;;;;5036522;28;20116;-81
2023/05/15 08:17:18;;;;;;;50.33;34.03;;;16.70;99.90;;;;;;5049803;28;20036;-78
2023/05/15 08:19:44;;;;;;;53.50;36.00;;;16.90;99.90;;;;;;5051045;28;20025;-76
2023/05/15 08:22:10;;;;;;;50.22;34.70;;;17.00;99.90;;;;;;5057449;28;20028;-78
2023/05/15 08:24:38;;;;;;;48.72;33.90;;;17.00;99.90;;;;;;5051705;28;20132;-77
2023/05/15 08:27:05;;;;;;;48.30;34.03;;;17.00;99.90;;;;;;5051928;28;21042;-76
2023/05/15 08:29:32;;;;;;;47.92;34.63;;;17.30;99.90;;;;;;5052638;28;20028;-76
2023/05/15 08:31:58;;;;;;;50.30;34.75;;;17.30;99.90;;;;;;5053204;28;20037;-76
2023/05/15 08:34:24;;;;;;;48.55;34.08;;;17.40;99.90;;;;;;5050709;28;20021;-76
2023/05/15 08:36:51;;;;;;;43.22;32.20;;;17.60;99.90;;;;;;5048476;28;20488;-77
2023/05/15 08:39:17;;;;;;;43.00;32.78;;;17.60;99.90;;;;;;5036498;28;20052;-77
2023/05/15 08:41:57;;;;;;;40.95;30.88;;;17.50;99.90;;;;;;5051751;28;20119;-79
2023/05/15 08:44:23;;;;;;;44.13;31.55;;;17.60;99.90;;;;;;5049582;28;20536;-76
2023/05/15 08:46:51;;;;;;;42.78;31.42;;;17.70;99.90;;;;;;5049445;28;20020;-74
2023/05/15 08:49:22;;;;;;;37.60;28.35;;;17.90;99.90;;;;;;5050760;28;20037;-75
2023/05/15 08:51:48;;;;;;;38.53;28.73;;;18.10;99.90;;;;;;5053597;28;20033;-74
2023/05/15 08:54:15;;;;;;;38.92;29.20;;;18.30;99.90;;;;;;5051814;28;20043;-79
2023/05/15 08:56:42;;;;;;;39.53;29.67;;;18.50;99.90;;;;;;5049387;28;20587;-74
2023/05/15 08:59:07;;;;;;;33.63;27.48;;;18.60;99.90;;;;;;5051076;28;20611;-76
2023/05/15 09:01:34;;;;;;;36.45;26.83;;;18.70;99.90;;;;;;5056395;28;20050;-76
2023/05/15 09:04:00;;;;;;;40.88;29.10;;;18.80;99.90;;;;;;5053642;28;20025;-74
2023/05/15 09:06:27;;;;;;;41.00;29.55;;;18.90;99.90;;;;;;5050046;28;20075;-74
2023/05/15 09:08:55;;;;;;;35.63;28.05;;;19.00;99.90;;;;;;5051947;28;20583;-78
2023/05/15 09:11:23;;;;;;;36.08;26.02;;;19.00;99.90;;;;;;5050888;28;20545;-76
2023/05/15 09:13:49;;;;;;;35.58;25.35;;;18.90;99.90;;;;;;5051509;28;20041;-76
2023/05/15 09:16:15;;;;;;;35.80;27.15;;;19.20;99.90;;;;;;5049183;28;20033;-79
2023/05/15 09:18:42;;;;;;;32.95;23.90;;;19.40;99.90;;;;;;5050759;28;20029;-77
2023/05/15 09:21:24;;;;;;;37.45;25.58;;;19.30;99.90;;;;;;5052382;28;20135;-77
2023/05/15 09:23:50;;;;;;;33.47;23.90;;;19.30;99.90;;;;;;5050438;28;20492;-75
2023/05/15 09:26:16;;;;;;;28.63;22.52;;;19.60;99.90;;;;;;5036579;28;20366;-76
2023/05/15 09:28:42;;;;;;;28.23;21.60;;;19.80;99.90;;;;;;5053561;28;20496;-75
2023/05/15 09:31:08;;;;;;;29.92;22.05;;;19.90;99.90;;;;;;5056273;28;20049;-74
2023/05/15 09:33:36;;;;;;;29.98;23.73;;;20.10;99.90;;;;;;5054026;28;21675;-75
2023/05/15 09:36:03;;;;;;;32.70;22.33;;;20.20;99.90;;;;;;5051806;28;20039;-79
2023/05/15 09:38:32;;;;;;;31.45;20.92;;;20.20;99.90;;;;;;5052648;28;20049;-75
2023/05/15 09:41:03;;;;;;;25.40;20.23;;;20.30;99.90;;;;;;5053965;28;20039;-75
2023/05/15 09:43:33;;;;;;;28.67;21.02;;;20.40;99.90;;;;;;5053322;28;20392;-78
2023/05/15 09:45:59;;;;;;;25.48;20.55;;;20.50;99.90;;;;;;5050045;28;20526;-75
2023/05/15 09:48:25;;;;;;;29.20;21.60;;;20.70;99.90;;;;;;5051109;28;20017;-75
2023/05/15 09:50:51;;;;;;;34.15;22.27;;;20.80;99.90;;;;;;5051617;28;20024;-76
2023/05/15 09:53:16;;;;;;;29.40;23.30;;;21.10;99.90;;;;;;5050308;28;20024;-76
2023/05/15 09:55:42;;;;;;;27.90;20.90;;;21.30;99.90;;;;;;5050084;28;20492;-75
2023/05/15 09:58:14;;;;;;;25.52;21.23;;;21.60;99.90;;;;;;5048865;28;20028;-74
2023/05/15 10:00:42;;;;;;;27.75;20.83;;;21.60;99.90;;;;;;5052303;28;20606;-75
2023/05/15 10:03:08;;;;;;;28.80;21.20;;;21.60;99.90;;;;;;5048943;28;20162;-74
2023/05/15 10:05:35;;;;;;;25.40;19.35;;;21.60;99.90;;;;;;5050985;28;20013;-77
2023/05/15 10:08:01;;;;;;;23.80;18.20;;;21.40;99.90;;;;;;5051314;28;20029;-77
2023/05/15 10:10:29;;;;;;;22.88;19.38;;;21.30;99.90;;;;;;5049578;28;20029;-74
2023/05/15 10:12:58;;;;;;;25.95;19.48;;;21.10;99.90;;;;;;5054611;28;20017;-74
2023/05/15 10:15:24;;;;;;;25.35;19.42;;;20.90;99.90;;;;;;5053689;28;20041;-74
2023/05/15 10:17:51;;;;;;;28.33;20.63;;;20.70;99.90;;;;;;5052703;28;20488;-74
2023/05/15 10:20:19;;;;;;;31.30;21.98;;;20.60;99.90;;;;;;5050386;28;20111;-74
2023/05/15 10:22:52;;;;;;;29.40;24.45;;;20.50;99.90;;;;;;5051975;28;20033;-75
2023/05/15 10:25:39;;;;;;;30.65;22.73;;;20.50;99.90;;;;;;5050128;28;20051;-74
2023/05/15 10:28:09;;;;;;;28.20;22.83;;;20.40;99.90;;;;;;5052716;28;20029;-74
2023/05/15 10:30:35;;;;;;;31.00;23.40;;;20.30;99.90;;;;;;5050837;28;20028;-76
2023/05/15 10:33:03;;;;;;;32.28;24.35;;;20.00;99.90;;;;;;5052854;28;20036;-76
2023/05/15 10:35:29;;;;;;;31.30;24.15;;;20.00;99.90;;;;;;5053446;28;20021;-76
2023/05/15 10:37:57;;;;;;;32.22;25.30;;;19.90;99.90;;;;;;5048626;28;20032;-75
2023/05/15 10:40:23;;;;;;;29.00;25.00;;;19.90;99.90;;;;;;5051905;28;20025;-74
2023/05/15 10:42:49;;;;;;;31.48;22.00;;;19.70;99.90;;;;;;5053215;28;20032;-74
2023/05/15 10:45:15;;;;;;;29.95;24.27;;;19.60;99.90;;;;;;5055823;28;20472;-74
2023/05/15 10:47:42;;;;;;;29.27;23.05;;;19.60;99.90;;;;;;5053201;28;20064;-74
2023/05/15 10:50:10;;;;;;;28.02;24.25;;;19.60;99.90;;;;;;5056089;28;20495;-76
2023/05/15 10:52:37;;;;;;;32.67;26.80;;;19.60;99.90;;;;;;5057640;28;20025;-76
2023/05/15 10:55:23;;;;;;;30.02;24.48;;;19.50;99.90;;;;;;5058862;28;20028;-76
2023/05/15 10:57:49;;;;;;;26.67;21.77;;;19.50;99.90;;;;;;5054225;28;20063;-76
2023/05/15 11:00:21;;;;;;;30.65;25.38;;;19.50;99.90;;;;;;5054510;28;20388;-76
2023/05/15 11:02:47;;;;;;;30.63;25.70;;;19.50;99.90;;;;;;5056431;28;20158;-76
2023/05/15 11:05:13;;;;;;;35.75;27.23;;;19.40;99.90;;;;;;5055872;28;20021;-76
2023/05/15 11:07:39;;;;;;;36.03;29.80;;;19.30;99.90;;;;;;5053040;28;20536;-77
2023/05/15 11:10:26;;;;;;;37.13;30.05;;;19.40;99.90;;;;;;5056943;28;20100;-75
2023/05/15 11:12:57;;;;;;;32.90;26.83;;;19.30;99.90;;;;;;5053311;28;20025;-77
2023/05/15 11:15:23;;;;;;;33.38;26.85;;;19.30;99.90;;;;;;5055677;28;20036;-77
2023/05/15 11:18:05;;;;;;;33.15;26.73;;;19.30;99.90;;;;;;5054201;28;20025;-76
2023/05/15 11:20:41;;;;;;;31.40;27.92;;;19.30;99.90;;;;;;5054112;28;20037;-77
2023/05/15 11:23:07;;;;;;;33.28;27.00;;;19.30;99.90;;;;;;5057812;28;20024;-76
2023/05/15 11:25:35;;;;;;;34.53;28.85;;;19.30;99.90;;;;;;5055622;28;20033;-76
2023/05/15 11:28:02;;;;;;;39.75;29.75;;;19.20;99.90;;;;;;5057541;28;20461;-74
2023/05/15 11:30:38;;;;;;;39.08;30.85;;;19.30;99.90;;;;;;5056866;28;20155;-76
2023/05/15 11:33:10;;;;;;;38.97;29.85;;;19.30;99.90;;;;;;5053362;28;20491;-75
2023/05/15 11:35:44;;;;;;;37.13;28.15;;;19.20;99.90;;;;;;5050493;28;20373;-78
2023/05/15 11:38:12;;;;;;;39.22;31.25;;;19.20;99.90;;;;;;5052841;28;20021;-76
2023/05/15 11:40:57;;;;;;;39.85;31.90;;;19.30;99.90;;;;;;5053730;28;22986;-76
2023/05/15 11:43:36;;;;;;;39.92;31.63;;;19.20;99.90;;;;;;5052819;28;20032;-80
2023/05/15 11:46:09;;;;;;;39.95;31.13;;;19.20;99.90;;;;;;5056272;28;20104;-78
2023/05/15 11:48:35;;;;;;;39.40;31.25;;;19.20;99.90;;;;;;5051749;28;20066;-79
2023/05/15 11:51:01;;;;;;;40.33;31.23;;;19.20;99.90;;;;;;5053152;28;20501;-78
2023/05/15 11:53:31;;;;;;;40.85;28.00;;;19.20;99.90;;;;;;5053070;28;20033;-76
2023/05/15 11:55:57;;;;;;;37.28;29.70;;;19.10;99.90;;;;;;5051230;28;20019;-75
2023/05/15 11:58:25;;;;;;;35.95;30.05;;;19.10;99.90;;;;;;5053711;28;20108;-75
2023/05/15 12:00:52;;;;;;;35.88;28.50;;;19.20;99.90;;;;;;5050969;28;20044;-76
2023/05/15 12:03:31;;;;;;;39.08;32.17;;;19.10;99.90;;;;;;5049968;28;20044;-76
2023/05/15 12:05:57;;;;;;;38.45;29.77;;;19.20;99.90;;;;;;5054010;28;20032;-76
2023/05/15 12:08:23;;;;;;;41.08;32.42;;;19.10;99.90;;;;;;5050857;28;20029;-76
2023/05/15 12:10:49;;;;;;;36.78;29.70;;;19.10;99.90;;;;;;5052024;28;20024;-76
2023/05/15 12:13:17;;;;;;;37.40;29.23;;;19.10;99.90;;;;;;5053193;28;20043;-74
2023/05/15 12:15:46;;;;;;;37.40;29.77;;;19.10;99.90;;;;;;5053325;28;20043;-76
2023/05/15 12:18:12;;;;;;;36.95;30.98;;;19.00;99.90;;;;;;5036027;28;20051;-75
2023/05/15 12:20:46;;;;;;;37.38;30.45;;;19.10;99.90;;;;;;5049775;28;20040;-76
2023/05/15 12:23:15;;;;;;;40.00;30.13;;;19.00;99.90;;;;;;5054795;28;20040;-75
2023/05/15 12:25:43;;;;;;;38.10;29.00;;;19.00;99.90;;;;;;5053415;28;20413;-80
2023/05/15 12:28:10;;;;;;;35.55;29.17;;;19.00;99.90;;;;;;5049515;28;20484;-78